Terminal Aerodrome Forecast
Issued by NWS Sioux Falls, SD

Home | Current Version | Previous Version | Text Only | Print | Product List | Glossary Off
Versions: 1 2 3 4 5 6 7 8 9 10 11 12

000
FTUS43 KFSD 271120
TAFSUX
TAF
KSUX 271120Z 2712/2812 VRB03KT P6SM -SHRA OVC080
     FM271600 36005KT P6SM OVC060
     FM280100 32006KT P6SM BKN070
     FM280400 VRB04KT P6SM SCT050=

USA.gov is the U.S. government's official web portal to all federal, state and local government web resources and services.